sensor_id;sensor_type;location;lat;lon;timestamp;temperature;humidity
15152;DHT22;7676;50.900;6.234;2022-09-09T00:04:03;19.80;99.90
15152;DHT22;7676;50.900;6.234;2022-09-09T00:09:15;19.80;99.90
15152;DHT22;7676;50.900;6.234;2022-09-09T00:14:26;19.90;99.90
15152;DHT22;7676;50.900;6.234;2022-09-09T00:19:53;19.80;99.90
15152;DHT22;7676;50.900;6.234;2022-09-09T00:25:22;19.80;99.90
15152;DHT22;7676;50.900;6.234;2022-09-09T00:30:34;19.80;99.90
15152;DHT22;7676;50.900;6.234;2022-09-09T00:35:39;19.70;99.90
15152;DHT22;7676;50.900;6.234;2022-09-09T00:41:10;19.70;99.90
15152;DHT22;7676;50.900;6.234;2022-09-09T00:46:34;19.80;99.90
15152;DHT22;7676;50.900;6.234;2022-09-09T00:52:03;19.60;99.90
15152;DHT22;7676;50.900;6.234;2022-09-09T00:57:38;19.40;99.90
15152;DHT22;7676;50.900;6.234;2022-09-09T01:08:01;19.30;99.90
15152;DHT22;7676;50.900;6.234;2022-09-09T01:13:11;19.10;99.90
15152;DHT22;7676;50.900;6.234;2022-09-09T01:18:17;19.10;99.90
15152;DHT22;7676;50.900;6.234;2022-09-09T01:29:08;18.90;99.90
15152;DHT22;7676;50.900;6.234;2022-09-09T01:34:15;18.60;99.90
15152;DHT22;7676;50.900;6.234;2022-09-09T01:39:20;18.60;99.90
15152;DHT22;7676;50.900;6.234;2022-09-09T01:44:31;18.40;99.90
15152;DHT22;7676;50.900;6.234;2022-09-09T01:49:35;18.40;99.90
15152;DHT22;7676;50.900;6.234;2022-09-09T01:54:44;18.60;99.90
15152;DHT22;7676;50.900;6.234;2022-09-09T02:00:04;18.60;99.90
15152;DHT22;7676;50.900;6.234;2022-09-09T02:10:36;18.50;99.90
15152;DHT22;7676;50.900;6.234;2022-09-09T02:16:08;18.40;99.90
15152;DHT22;7676;50.900;6.234;2022-09-09T02:21:12;18.50;99.90
15152;DHT22;7676;50.900;6.234;2022-09-09T02:26:17;18.60;99.90
15152;DHT22;7676;50.900;6.234;2022-09-09T02:31:28;18.60;99.90
15152;DHT22;7676;50.900;6.234;2022-09-09T02:36:37;18.50;99.90
15152;DHT22;7676;50.900;6.234;2022-09-09T02:41:42;18.60;99.90
15152;DHT22;7676;50.900;6.234;2022-09-09T02:52:08;18.70;99.90
15152;DHT22;7676;50.900;6.234;2022-09-09T02:57:16;18.60;99.90
15152;DHT22;7676;50.900;6.234;2022-09-09T03:02:22;18.80;99.90
15152;DHT22;7676;50.900;6.234;2022-09-09T03:07:29;18.70;99.90
15152;DHT22;7676;50.900;6.234;2022-09-09T03:12:31;18.80;99.90
15152;DHT22;7676;50.900;6.234;2022-09-09T03:17:35;18.80;99.90
15152;DHT22;7676;50.900;6.234;2022-09-09T03:22:38;18.80;99.90
15152;DHT22;7676;50.900;6.234;2022-09-09T03:27:41;19.00;99.90
15152;DHT22;7676;50.900;6.234;2022-09-09T03:32:43;18.80;99.90
15152;DHT22;7676;50.900;6.234;2022-09-09T03:37:50;18.80;99.90
15152;DHT22;7676;50.900;6.234;2022-09-09T03:42:53;18.90;99.90
15152;DHT22;7676;50.900;6.234;2022-09-09T03:47:56;18.90;99.90
15152;DHT22;7676;50.900;6.234;2022-09-09T03:52:59;18.80;99.90
15152;DHT22;7676;50.900;6.234;2022-09-09T03:58:01;18.80;99.90
15152;DHT22;7676;50.900;6.234;2022-09-09T04:03:04;18.80;99.90
15152;DHT22;7676;50.900;6.234;2022-09-09T04:08:06;18.60;99.90
15152;DHT22;7676;50.900;6.234;2022-09-09T04:13:09;18.60;99.90
15152;DHT22;7676;50.900;6.234;2022-09-09T04:18:14;18.70;99.90
15152;DHT22;7676;50.900;6.234;2022-09-09T04:23:21;18.70;99.90
15152;DHT22;7676;50.900;6.234;2022-09-09T04:28:25;19.00;99.90
15152;DHT22;7676;50.900;6.234;2022-09-09T04:33:28;18.90;99.90
15152;DHT22;7676;50.900;6.234;2022-09-09T04:38:31;18.90;99.90
15152;DHT22;7676;50.900;6.234;2022-09-09T04:43:35;18.90;99.90
15152;DHT22;7676;50.900;6.234;2022-09-09T04:48:41;18.80;99.90
15152;DHT22;7676;50.900;6.234;2022-09-09T04:53:45;18.90;99.90
15152;DHT22;7676;50.900;6.234;2022-09-09T04:58:49;19.00;99.90
15152;DHT22;7676;50.900;6.234;2022-09-09T05:03:52;18.80;99.90
15152;DHT22;7676;50.900;6.234;2022-09-09T05:08:57;18.60;99.90
15152;DHT22;7676;50.900;6.234;2022-09-09T05:14:03;18.50;99.90
15152;DHT22;7676;50.900;6.234;2022-09-09T05:19:06;18.50;99.90
15152;DHT22;7676;50.900;6.234;2022-09-09T05:24:22;18.40;99.90
15152;DHT22;7676;50.900;6.234;2022-09-09T05:29:28;18.40;99.90
15152;DHT22;7676;50.900;6.234;2022-09-09T05:34:31;18.10;99.90
15152;DHT22;7676;50.900;6.234;2022-09-09T05:39:35;18.10;99.90
15152;DHT22;7676;50.900;6.234;2022-09-09T05:44:39;18.00;99.90
15152;DHT22;7676;50.900;6.234;2022-09-09T05:49:42;17.80;99.90
15152;DHT22;7676;50.900;6.234;2022-09-09T05:54:45;18.10;99.90
15152;DHT22;7676;50.900;6.234;2022-09-09T05:59:47;18.00;99.90
15152;DHT22;7676;50.900;6.234;2022-09-09T06:04:49;18.10;99.90
15152;DHT22;7676;50.900;6.234;2022-09-09T06:09:52;18.20;99.90
15152;DHT22;7676;50.900;6.234;2022-09-09T06:14:55;18.20;99.90
15152;DHT22;7676;50.900;6.234;2022-09-09T06:19:58;18.20;99.90
15152;DHT22;7676;50.900;6.234;2022-09-09T06:25:00;18.20;99.90
15152;DHT22;7676;50.900;6.234;2022-09-09T06:30:03;18.10;99.90
15152;DHT22;7676;50.900;6.234;2022-09-09T06:35:06;18.00;99.90
15152;DHT22;7676;50.900;6.234;2022-09-09T06:40:10;18.20;99.90
15152;DHT22;7676;50.900;6.234;2022-09-09T06:45:13;18.30;99.90
15152;DHT22;7676;50.900;6.234;2022-09-09T06:50:27;18.40;99.90
15152;DHT22;7676;50.900;6.234;2022-09-09T06:55:29;18.30;99.90
15152;DHT22;7676;50.900;6.234;2022-09-09T07:00:32;18.20;99.90
15152;DHT22;7676;50.900;6.234;2022-09-09T07:05:34;18.30;99.90
15152;DHT22;7676;50.900;6.234;2022-09-09T07:10:37;18.30;99.90
15152;DHT22;7676;50.900;6.234;2022-09-09T07:15:40;18.70;99.90
15152;DHT22;7676;50.900;6.234;2022-09-09T07:20:42;18.90;99.90
15152;DHT22;7676;50.900;6.234;2022-09-09T07:25:45;18.30;99.90
15152;DHT22;7676;50.900;6.234;2022-09-09T07:31:00;18.40;99.90
15152;DHT22;7676;50.900;6.234;2022-09-09T07:41:16;18.40;99.90
15152;DHT22;7676;50.900;6.234;2022-09-09T07:46:23;18.70;99.90
15152;DHT22;7676;50.900;6.234;2022-09-09T07:51:29;18.60;99.90
15152;DHT22;7676;50.900;6.234;2022-09-09T07:56:32;18.80;99.90
15152;DHT22;7676;50.900;6.234;2022-09-09T08:01:41;18.70;99.90
15152;DHT22;7676;50.900;6.234;2022-09-09T08:06:51;18.70;99.90
15152;DHT22;7676;50.900;6.234;2022-09-09T08:11:57;19.00;99.90
15152;DHT22;7676;50.900;6.234;2022-09-09T08:17:00;19.10;99.90
15152;DHT22;7676;50.900;6.234;2022-09-09T08:22:04;19.00;99.90
15152;DHT22;7676;50.900;6.234;2022-09-09T08:27:08;19.00;99.90
15152;DHT22;7676;50.900;6.234;2022-09-09T08:32:13;18.90;99.90
15152;DHT22;7676;50.900;6.234;2022-09-09T08:37:15;19.20;99.90
15152;DHT22;7676;50.900;6.234;2022-09-09T08:47:35;19.10;99.90
15152;DHT22;7676;50.900;6.234;2022-09-09T08:52:57;19.20;99.90
15152;DHT22;7676;50.900;6.234;2022-09-09T08:58:25;19.40;99.90
15152;DHT22;7676;50.900;6.234;2022-09-09T09:09:21;19.70;99.90
15152;DHT22;7676;50.900;6.234;2022-09-09T09:14:28;19.80;99.90
15152;DHT22;7676;50.900;6.234;2022-09-09T09:19:39;19.90;99.90
15152;DHT22;7676;50.900;6.234;2022-09-09T09:25:22;20.10;99.90
15152;DHT22;7676;50.900;6.234;2022-09-09T09:30:35;20.20;99.90
15152;DHT22;7676;50.900;6.234;2022-09-09T09:35:42;20.50;99.90
15152;DHT22;7676;50.900;6.234;2022-09-09T09:40:59;20.70;99.90
15152;DHT22;7676;50.900;6.234;2022-09-09T09:46:04;21.10;99.90
15152;DHT22;7676;50.900;6.234;2022-09-09T09:51:22;21.40;99.90
15152;DHT22;7676;50.900;6.234;2022-09-09T09:56:27;21.50;99.90
15152;DHT22;7676;50.900;6.234;2022-09-09T10:01:34;21.50;99.90
15152;DHT22;7676;50.900;6.234;2022-09-09T10:06:41;21.10;99.90
15152;DHT22;7676;50.900;6.234;2022-09-09T10:12:00;21.40;99.90
15152;DHT22;7676;50.900;6.234;2022-09-09T10:17:21;21.50;99.90
15152;DHT22;7676;50.900;6.234;2022-09-09T10:22:32;21.50;99.90
15152;DHT22;7676;50.900;6.234;2022-09-09T10:27:51;21.50;99.90
15152;DHT22;7676;50.900;6.234;2022-09-09T10:33:09;21.10;99.90
15152;DHT22;7676;50.900;6.234;2022-09-09T11:00:04;20.80;99.90
15152;DHT22;7676;50.900;6.234;2022-09-09T11:16:42;20.50;99.90
15152;DHT22;7676;50.900;6.234;2022-09-09T11:21:49;21.00;99.90
15152;DHT22;7676;50.900;6.234;2022-09-09T11:26:58;21.40;99.90
15152;DHT22;7676;50.900;6.234;2022-09-09T11:42:40;21.50;99.90
15152;DHT22;7676;50.900;6.234;2022-09-09T11:47:52;21.90;99.90
15152;DHT22;7676;50.900;6.234;2022-09-09T11:58:17;22.10;99.90
15152;DHT22;7676;50.900;6.234;2022-09-09T12:03:40;21.80;99.90
15152;DHT22;7676;50.900;6.234;2022-09-09T12:08:48;21.60;99.90
15152;DHT22;7676;50.900;6.234;2022-09-09T12:13:53;21.50;99.90
15152;DHT22;7676;50.900;6.234;2022-09-09T12:19:13;21.40;99.90
15152;DHT22;7676;50.900;6.234;2022-09-09T12:24:30;21.40;99.90
15152;DHT22;7676;50.900;6.234;2022-09-09T12:34:52;21.40;99.90
15152;DHT22;7676;50.900;6.234;2022-09-09T12:39:56;21.30;99.90
15152;DHT22;7676;50.900;6.234;2022-09-09T12:45:02;21.30;99.90
15152;DHT22;7676;50.900;6.234;2022-09-09T12:50:12;21.20;99.90
15152;DHT22;7676;50.900;6.234;2022-09-09T12:55:25;23.30;99.90
15152;DHT22;7676;50.900;6.234;2022-09-09T13:00:27;21.30;99.90
15152;DHT22;7676;50.900;6.234;2022-09-09T13:05:38;20.90;99.90
15152;DHT22;7676;50.900;6.234;2022-09-09T13:10:51;21.00;99.90
15152;DHT22;7676;50.900;6.234;2022-09-09T13:16:06;21.30;99.90
15152;DHT22;7676;50.900;6.234;2022-09-09T13:21:10;21.50;99.90
15152;DHT22;7676;50.900;6.234;2022-09-09T13:26:23;21.60;99.90
15152;DHT22;7676;50.900;6.234;2022-09-09T13:31:30;21.50;99.90
15152;DHT22;7676;50.900;6.234;2022-09-09T13:36:34;21.60;99.90
15152;DHT22;7676;50.900;6.234;2022-09-09T13:41:44;22.00;99.90
15152;DHT22;7676;50.900;6.234;2022-09-09T13:46:46;21.70;99.90
15152;DHT22;7676;50.900;6.234;2022-09-09T13:51:50;21.30;99.90
15152;DHT22;7676;50.900;6.234;2022-09-09T13:56:54;21.60;99.90
15152;DHT22;7676;50.900;6.234;2022-09-09T14:01:57;21.60;99.90
15152;DHT22;7676;50.900;6.234;2022-09-09T14:07:00;21.40;99.90
15152;DHT22;7676;50.900;6.234;2022-09-09T14:12:03;21.50;99.90
15152;DHT22;7676;50.900;6.234;2022-09-09T14:17:05;21.40;99.90
15152;DHT22;7676;50.900;6.234;2022-09-09T14:22:09;21.60;99.90
15152;DHT22;7676;50.900;6.234;2022-09-09T14:27:11;21.50;99.90
15152;DHT22;7676;50.900;6.234;2022-09-09T14:32:14;21.50;99.90
15152;DHT22;7676;50.900;6.234;2022-09-09T14:37:17;21.90;99.90
15152;DHT22;7676;50.900;6.234;2022-09-09T14:42:20;22.00;99.90
15152;DHT22;7676;50.900;6.234;2022-09-09T14:47:22;21.70;99.90
15152;DHT22;7676;50.900;6.234;2022-09-09T14:52:24;21.40;99.90
15152;DHT22;7676;50.900;6.234;2022-09-09T14:57:27;20.90;99.90
15152;DHT22;7676;50.900;6.234;2022-09-09T15:02:30;21.10;99.90
15152;DHT22;7676;50.900;6.234;2022-09-09T15:07:33;20.90;99.90
15152;DHT22;7676;50.900;6.234;2022-09-09T15:12:36;20.90;99.90
15152;DHT22;7676;50.900;6.234;2022-09-09T15:17:38;21.20;99.90
15152;DHT22;7676;50.900;6.234;2022-09-09T15:23:21;20.90;99.90
15152;DHT22;7676;50.900;6.234;2022-09-09T15:28:24;20.90;99.90
15152;DHT22;7676;50.900;6.234;2022-09-09T15:33:26;20.70;99.90
15152;DHT22;7676;50.900;6.234;2022-09-09T15:38:31;20.80;99.90
15152;DHT22;7676;50.900;6.234;2022-09-09T15:43:33;20.90;99.90
15152;DHT22;7676;50.900;6.234;2022-09-09T15:48:35;20.70;99.90
15152;DHT22;7676;50.900;6.234;2022-09-09T15:53:42;20.70;99.90
15152;DHT22;7676;50.900;6.234;2022-09-09T15:58:45;20.90;99.90
15152;DHT22;7676;50.900;6.234;2022-09-09T16:04:28;20.80;99.90
15152;DHT22;7676;50.900;6.234;2022-09-09T16:10:12;20.70;99.90
15152;DHT22;7676;50.900;6.234;2022-09-09T16:15:28;20.70;99.90
15152;DHT22;7676;50.900;6.234;2022-09-09T16:20:32;20.60;99.90
15152;DHT22;7676;50.900;6.234;2022-09-09T16:25:34;20.50;99.90
15152;DHT22;7676;50.900;6.234;2022-09-09T16:30:37;20.40;99.90
15152;DHT22;7676;50.900;6.234;2022-09-09T16:35:39;20.30;99.90
15152;DHT22;7676;50.900;6.234;2022-09-09T16:40:42;20.30;99.90
15152;DHT22;7676;50.900;6.234;2022-09-09T16:45:46;20.30;99.90
15152;DHT22;7676;50.900;6.234;2022-09-09T16:50:48;20.40;99.90
15152;DHT22;7676;50.900;6.234;2022-09-09T16:55:51;20.20;99.90
15152;DHT22;7676;50.900;6.234;2022-09-09T17:00:58;20.10;99.90
15152;DHT22;7676;50.900;6.234;2022-09-09T17:06:00;20.00;99.90
15152;DHT22;7676;50.900;6.234;2022-09-09T17:11:16;20.00;99.90
15152;DHT22;7676;50.900;6.234;2022-09-09T17:16:21;19.90;99.90
15152;DHT22;7676;50.900;6.234;2022-09-09T17:21:25;19.80;99.90
15152;DHT22;7676;50.900;6.234;2022-09-09T17:26:30;19.70;99.90
15152;DHT22;7676;50.900;6.234;2022-09-09T17:31:33;19.70;99.90
15152;DHT22;7676;50.900;6.234;2022-09-09T17:36:37;19.60;99.90
15152;DHT22;7676;50.900;6.234;2022-09-09T17:41:40;19.70;99.90
15152;DHT22;7676;50.900;6.234;2022-09-09T17:46:42;19.60;99.90
15152;DHT22;7676;50.900;6.234;2022-09-09T17:51:45;19.50;99.90
15152;DHT22;7676;50.900;6.234;2022-09-09T17:56:48;19.00;99.90
15152;DHT22;7676;50.900;6.234;2022-09-09T18:01:50;19.00;99.90
15152;DHT22;7676;50.900;6.234;2022-09-09T18:06:53;18.90;99.90
15152;DHT22;7676;50.900;6.234;2022-09-09T18:11:57;18.80;99.90
15152;DHT22;7676;50.900;6.234;2022-09-09T18:17:01;18.80;99.90
15152;DHT22;7676;50.900;6.234;2022-09-09T18:22:06;18.80;99.90
15152;DHT22;7676;50.900;6.234;2022-09-09T18:27:09;18.80;99.90
15152;DHT22;7676;50.900;6.234;2022-09-09T18:32:12;19.00;99.90
15152;DHT22;7676;50.900;6.234;2022-09-09T18:37:16;19.20;99.90
15152;DHT22;7676;50.900;6.234;2022-09-09T18:42:19;19.00;99.90
15152;DHT22;7676;50.900;6.234;2022-09-09T18:47:21;19.10;99.90
15152;DHT22;7676;50.900;6.234;2022-09-09T18:52:26;19.20;99.90
15152;DHT22;7676;50.900;6.234;2022-09-09T18:57:29;19.00;99.90
15152;DHT22;7676;50.900;6.234;2022-09-09T19:02:37;18.90;99.90
15152;DHT22;7676;50.900;6.234;2022-09-09T19:07:40;18.80;99.90
15152;DHT22;7676;50.900;6.234;2022-09-09T19:12:43;18.70;99.90
15152;DHT22;7676;50.900;6.234;2022-09-09T19:17:46;18.80;99.90
15152;DHT22;7676;50.900;6.234;2022-09-09T19:22:49;18.70;99.90
15152;DHT22;7676;50.900;6.234;2022-09-09T19:27:51;18.90;99.90
15152;DHT22;7676;50.900;6.234;2022-09-09T19:32:54;18.80;99.90
15152;DHT22;7676;50.900;6.234;2022-09-09T19:37:58;18.90;99.90
15152;DHT22;7676;50.900;6.234;2022-09-09T19:43:00;18.90;99.90
15152;DHT22;7676;50.900;6.234;2022-09-09T19:48:03;18.90;99.90
15152;DHT22;7676;50.900;6.234;2022-09-09T19:53:07;18.90;99.90
15152;DHT22;7676;50.900;6.234;2022-09-09T19:58:10;18.90;99.90
15152;DHT22;7676;50.900;6.234;2022-09-09T20:03:12;19.00;99.90
15152;DHT22;7676;50.900;6.234;2022-09-09T20:08:21;18.80;99.90
15152;DHT22;7676;50.900;6.234;2022-09-09T20:13:24;19.00;99.90
15152;DHT22;7676;50.900;6.234;2022-09-09T20:18:27;19.10;99.90
15152;DHT22;7676;50.900;6.234;2022-09-09T20:23:32;18.90;99.90
15152;DHT22;7676;50.900;6.234;2022-09-09T20:28:38;18.80;99.90
15152;DHT22;7676;50.900;6.234;2022-09-09T20:33:42;18.70;99.90
15152;DHT22;7676;50.900;6.234;2022-09-09T20:38:58;18.80;99.90
15152;DHT22;7676;50.900;6.234;2022-09-09T20:44:18;18.80;99.90
15152;DHT22;7676;50.900;6.234;2022-09-09T20:49:21;19.00;99.90
15152;DHT22;7676;50.900;6.234;2022-09-09T20:54:28;18.80;99.90
15152;DHT22;7676;50.900;6.234;2022-09-09T20:59:33;18.60;99.90
15152;DHT22;7676;50.900;6.234;2022-09-09T21:04:36;18.50;99.90
15152;DHT22;7676;50.900;6.234;2022-09-09T21:09:42;18.70;99.90
15152;DHT22;7676;50.900;6.234;2022-09-09T21:14:45;18.70;99.90
15152;DHT22;7676;50.900;6.234;2022-09-09T21:19:47;18.70;99.90
15152;DHT22;7676;50.900;6.234;2022-09-09T21:24:49;18.50;99.90
15152;DHT22;7676;50.900;6.234;2022-09-09T21:29:52;18.50;99.90
15152;DHT22;7676;50.900;6.234;2022-09-09T21:34:54;18.80;99.90
15152;DHT22;7676;50.900;6.234;2022-09-09T21:39:57;18.70;99.90
15152;DHT22;7676;50.900;6.234;2022-09-09T21:45:00;18.20;99.90
15152;DHT22;7676;50.900;6.234;2022-09-09T21:50:03;18.20;99.90
15152;DHT22;7676;50.900;6.234;2022-09-09T21:55:05;18.20;99.90
15152;DHT22;7676;50.900;6.234;2022-09-09T22:00:08;18.20;99.90
15152;DHT22;7676;50.900;6.234;2022-09-09T22:05:16;18.30;99.90
15152;DHT22;7676;50.900;6.234;2022-09-09T22:10:21;18.30;99.90
15152;DHT22;7676;50.900;6.234;2022-09-09T22:15:24;18.50;99.90
15152;DHT22;7676;50.900;6.234;2022-09-09T22:20:26;18.10;99.90
15152;DHT22;7676;50.900;6.234;2022-09-09T22:25:32;18.30;99.90
15152;DHT22;7676;50.900;6.234;2022-09-09T22:30:36;18.20;99.90
15152;DHT22;7676;50.900;6.234;2022-09-09T22:35:40;18.10;99.90
15152;DHT22;7676;50.900;6.234;2022-09-09T22:40:43;18.20;99.90
15152;DHT22;7676;50.900;6.234;2022-09-09T22:45:46;18.00;99.90
15152;DHT22;7676;50.900;6.234;2022-09-09T22:50:48;17.90;99.90
15152;DHT22;7676;50.900;6.234;2022-09-09T22:56:02;17.90;99.90
15152;DHT22;7676;50.900;6.234;2022-09-09T23:01:17;17.90;99.90
15152;DHT22;7676;50.900;6.234;2022-09-09T23:06:21;18.10;99.90
15152;DHT22;7676;50.900;6.234;2022-09-09T23:11:33;17.80;99.90
15152;DHT22;7676;50.900;6.234;2022-09-09T23:16:42;17.90;99.90
15152;DHT22;7676;50.900;6.234;2022-09-09T23:21:45;17.80;99.90
15152;DHT22;7676;50.900;6.234;2022-09-09T23:26:49;18.80;99.90
15152;DHT22;7676;50.900;6.234;2022-09-09T23:31:51;17.90;99.90
15152;DHT22;7676;50.900;6.234;2022-09-09T23:36:53;17.70;99.90
15152;DHT22;7676;50.900;6.234;2022-09-09T23:41:55;18.10;99.90
15152;DHT22;7676;50.900;6.234;2022-09-09T23:46:57;18.00;99.90
15152;DHT22;7676;50.900;6.234;2022-09-09T23:52:01;18.00;99.90
15152;DHT22;7676;50.900;6.234;2022-09-09T23:57:06;18.00;99.90
